Portland Hillsboro Airport
KHIO : now visible

Airfield :











YOU CAN JOIN US ON...

 
LOGIN :

Register | Disclaimer

   EN    FR    IT 

 









Legend :    VFR   Marginal VFR   IFR   Intensive IFR   Very Intensive IFR
Visi :
Ceiling :
>= 8 km
>= 3000ft
5 to 8 km
1000 to 3000 ft
1500m to 5 km
500 to 1000 ft
800 to 1500m
200 to 500 ft
< 800m
< 200 ft
Symbols :   Thunderstorms  Fog  Heavy snow  Heavy precipitations  Wind > 20 kt






- Airport Elevation : 208 ft


KHIO - Portland Hillsboro

CURRENT METAR :
  • 250853Z AUTO 00000KT 10SM CLR 11/09 A3009 RMK AO2 SLP186 T01110089 58004

EXPIRED METARs :
  • 250753Z AUTO 00000KT 10SM CLR 12/09 A3009 RMK AO2 SLP188 T01220089 402330078
  • 250653Z AUTO 28004KT 10SM CLR 14/09 A3010 RMK AO2 SLP190 T01390094
  • 250553Z AUTO 29004KT 10SM CLR 15/10 A3010 RMK AO2 SLP191 T01500100 10233 20144 50003

TAF KHIO
Valid from the 25 at 06:00 until the 26 at 06:00 UTC


250520Z 2506/2606 32006KT P6SM SCT100 BKN250
FM250800 VRB03KT P6SM OVC100
FM251500 VRB03KT P6SM -RA BKN045 OVC060
FM251900 18003KT P6SM -RA OVC035
FM260200 20006KT P6SM OVC050
KZSE FIR / North America



MET'MAP, your aeronautical weather chart ! - Copyright ORBIFLY December 2007 - Disclaimer

ORBIFLY MET'MAP TEAM :

Programming & Development : Alexandra Zaïnal
Concept & original design : Baudouin d'Aumeries
Assistance for programming : Marc-Olivier Méhu
Technical & hardware support : Manuel Goepfert

Contact : metmap@orbifly.com




SOURCES & CREDITS :

   NOAA       Earth
Advisory